createdAt,value
2023-02-07T00:01:18.495Z,84.09
2023-02-07T00:03:45.521Z,84.10
2023-02-07T00:06:15.555Z,84.32
2023-02-07T00:08:42.301Z,84.16
2023-02-07T00:11:12.279Z,84.01
2023-02-07T00:13:39.061Z,84.02
2023-02-07T00:16:06.517Z,84.05
2023-02-07T00:18:33.619Z,84.26
2023-02-07T00:21:06.240Z,83.88
2023-02-07T00:23:33.146Z,84.30
2023-02-07T00:25:59.605Z,84.50
2023-02-07T00:28:26.637Z,83.94
2023-02-07T00:31:12.644Z,84.12
2023-02-07T00:33:40.643Z,84.48
2023-02-07T00:36:09.050Z,84.32
2023-02-07T00:38:35.743Z,84.62
2023-02-07T00:41:02.585Z,84.56
2023-02-07T00:43:32.863Z,84.00
2023-02-07T00:46:00.676Z,84.47
2023-02-07T00:48:28.131Z,84.04
2023-02-07T00:50:55.026Z,84.16
2023-02-07T00:53:21.897Z,83.85
2023-02-07T00:55:48.424Z,84.12
2023-02-07T00:58:14.817Z,84.70
2023-02-07T01:00:41.256Z,84.59
2023-02-07T01:03:07.694Z,84.18
2023-02-07T01:05:34.246Z,84.75
2023-02-07T01:08:00.660Z,84.47
2023-02-07T01:10:27.185Z,85.07
2023-02-07T01:12:53.596Z,85.17
2023-02-07T01:15:20.090Z,84.45
2023-02-07T01:17:46.542Z,84.44
2023-02-07T01:20:13.109Z,84.53
2023-02-07T01:22:39.826Z,84.89
2023-02-07T01:25:07.047Z,84.79
2023-02-07T01:27:34.035Z,84.74
2023-02-07T01:30:00.415Z,84.86
2023-02-07T01:32:27.862Z,84.71
2023-02-07T01:34:54.213Z,84.67
2023-02-07T01:37:23.603Z,84.90
2023-02-07T01:39:50.053Z,84.91
2023-02-07T01:42:17.647Z,84.99
2023-02-07T01:44:43.953Z,85.15
2023-02-07T01:47:18.171Z,84.74
2023-02-07T01:49:45.799Z,84.76
2023-02-07T01:52:19.885Z,84.68
2023-02-07T01:54:49.471Z,84.94
2023-02-07T01:57:17.996Z,85.21
2023-02-07T01:59:45.212Z,85.27
2023-02-07T02:02:16.252Z,85.22
2023-02-07T02:04:42.702Z,85.35
2023-02-07T02:07:10.383Z,85.34
2023-02-07T02:09:37.762Z,85.04
2023-02-07T02:12:15.071Z,85.10
2023-02-07T02:15:07.383Z,85.63
2023-02-07T02:17:45.831Z,85.66
2023-02-07T02:20:35.462Z,85.31
2023-02-07T02:23:10.327Z,85.22
2023-02-07T02:26:05.953Z,85.32
2023-02-07T02:29:10.063Z,85.76
2023-02-07T02:32:24.546Z,86.10
2023-02-07T02:35:28.294Z,86.34
2023-02-07T02:38:13.005Z,86.07
2023-02-07T02:40:51.003Z,85.54
2023-02-07T02:43:24.002Z,86.33
2023-02-07T02:45:59.077Z,85.75
2023-02-07T02:48:26.549Z,85.61
2023-02-07T02:50:53.684Z,85.53
2023-02-07T02:53:20.601Z,85.42
2023-02-07T02:56:19.768Z,86.06
2023-02-07T02:59:28.124Z,85.44
2023-02-07T03:02:18.854Z,85.79
2023-02-07T03:05:03.977Z,85.43
2023-02-07T03:07:45.000Z,85.57
2023-02-07T03:10:26.627Z,85.68
2023-02-07T03:13:21.614Z,85.58
2023-02-07T03:16:07.595Z,85.81
2023-02-07T03:18:48.346Z,85.66
2023-02-07T03:21:20.370Z,86.13
2023-02-07T03:23:47.917Z,85.95
2023-02-07T03:26:14.709Z,85.64
2023-02-07T03:28:41.959Z,85.53
2023-02-07T03:31:10.600Z,85.70
2023-02-07T03:33:37.805Z,85.53
2023-02-07T03:36:16.621Z,85.41
2023-02-07T03:38:43.030Z,85.73
2023-02-07T03:41:18.651Z,85.70
2023-02-07T03:43:45.358Z,85.32
2023-02-07T03:46:11.956Z,85.39
2023-02-07T03:48:38.385Z,85.13
2023-02-07T03:51:05.023Z,85.78
2023-02-07T03:53:31.530Z,85.72
2023-02-07T03:55:58.072Z,85.88
2023-02-07T03:58:24.432Z,85.33
2023-02-07T04:00:50.885Z,85.92
2023-02-07T04:03:17.316Z,85.75
2023-02-07T04:05:45.670Z,86.31
2023-02-07T04:08:12.178Z,86.53
2023-02-07T04:10:38.642Z,86.08
2023-02-07T04:13:05.048Z,86.48
2023-02-07T04:15:31.516Z,85.84
2023-02-07T04:17:57.905Z,85.99
2023-02-07T04:20:24.304Z,86.30
2023-02-07T04:22:50.725Z,86.01
2023-02-07T04:25:17.268Z,85.95
2023-02-07T04:27:43.693Z,86.06
2023-02-07T04:30:10.696Z,85.80
2023-02-07T04:32:37.097Z,85.86
2023-02-07T04:35:03.744Z,85.47
2023-02-07T04:37:30.175Z,86.20
2023-02-07T04:39:56.606Z,86.42
2023-02-07T04:42:22.978Z,85.88
2023-02-07T04:44:49.490Z,86.23
2023-02-07T04:47:15.849Z,85.90
2023-02-07T04:49:42.382Z,86.17
2023-02-07T04:52:08.805Z,86.03
2023-02-07T04:54:35.170Z,85.93
2023-02-07T04:57:01.698Z,86.28
2023-02-07T04:59:28.218Z,86.51
2023-02-07T05:01:54.641Z,86.22
2023-02-07T05:04:21.087Z,86.19
2023-02-07T05:06:47.750Z,86.56
2023-02-07T05:09:14.162Z,86.28
2023-02-07T05:11:40.647Z,86.50
2023-02-07T05:14:07.086Z,87.10
2023-02-07T05:16:33.495Z,87.36
2023-02-07T05:19:00.039Z,87.45
2023-02-07T05:21:26.462Z,87.55
2023-02-07T05:23:52.867Z,86.67
2023-02-07T05:26:19.280Z,86.68
2023-02-07T05:28:45.765Z,86.65
2023-02-07T05:31:12.255Z,86.95
2023-02-07T05:33:39.012Z,87.18
2023-02-07T05:36:06.086Z,87.99
2023-02-07T05:38:32.500Z,88.16
2023-02-07T05:40:59.701Z,88.74
2023-02-07T05:43:26.114Z,88.47
2023-02-07T05:45:52.980Z,88.51
2023-02-07T05:48:19.407Z,88.25
2023-02-07T05:50:45.813Z,88.45
2023-02-07T05:53:12.877Z,88.42
2023-02-07T05:55:39.590Z,88.30
2023-02-07T05:58:06.242Z,88.66
2023-02-07T06:00:32.679Z,88.05
2023-02-07T06:02:59.104Z,88.07
2023-02-07T06:05:25.913Z,87.87
2023-02-07T06:07:52.344Z,87.75
2023-02-07T06:10:18.992Z,87.62
2023-02-07T06:12:45.366Z,87.91
2023-02-07T06:15:11.823Z,87.77
2023-02-07T06:17:38.338Z,87.52
2023-02-07T06:20:05.007Z,87.39
2023-02-07T06:22:31.582Z,87.43
2023-02-07T06:24:57.990Z,87.14
2023-02-07T06:27:24.408Z,87.13
2023-02-07T06:29:50.828Z,86.66
2023-02-07T06:32:17.215Z,86.84
2023-02-07T06:34:43.634Z,87.20
2023-02-07T06:37:10.016Z,87.24
2023-02-07T06:39:36.378Z,87.71
2023-02-07T06:42:02.792Z,86.86
2023-02-07T06:44:29.168Z,87.44
2023-02-07T06:46:55.629Z,87.73
2023-02-07T06:49:21.985Z,87.19
2023-02-07T06:51:48.350Z,87.40
2023-02-07T06:54:14.761Z,87.47
2023-02-07T06:56:41.134Z,87.15
2023-02-07T06:59:07.541Z,86.82
2023-02-07T07:01:33.932Z,87.53
2023-02-07T07:04:00.498Z,87.33
2023-02-07T07:06:26.958Z,87.50
2023-02-07T07:08:53.441Z,88.22
2023-02-07T07:11:20.359Z,87.41
2023-02-07T07:13:47.086Z,87.16
2023-02-07T07:16:14.011Z,86.47
2023-02-07T07:18:40.770Z,86.53
2023-02-07T07:21:07.848Z,86.42
2023-02-07T07:23:34.250Z,86.68
2023-02-07T07:26:00.700Z,86.59
2023-02-07T07:28:27.150Z,86.78
2023-02-07T07:30:53.634Z,87.12
2023-02-07T07:33:20.053Z,86.68
2023-02-07T07:35:46.409Z,87.42
2023-02-07T07:38:12.846Z,86.91
2023-02-07T07:40:39.575Z,86.94
2023-02-07T07:43:06.343Z,87.13
2023-02-07T07:45:32.833Z,86.87
2023-02-07T07:47:59.313Z,86.80
2023-02-07T07:50:25.703Z,87.05
2023-02-07T07:52:52.157Z,87.14
2023-02-07T07:55:18.538Z,86.92
2023-02-07T07:57:44.900Z,87.15
2023-02-07T08:00:12.028Z,87.02
2023-02-07T08:02:38.410Z,86.74
2023-02-07T08:05:05.107Z,87.04
2023-02-07T08:07:31.527Z,87.23
2023-02-07T08:09:57.957Z,87.25
2023-02-07T08:12:24.383Z,87.12
2023-02-07T08:14:50.761Z,87.18
2023-02-07T08:17:17.273Z,86.98
2023-02-07T08:19:43.639Z,87.07
2023-02-07T08:22:10.079Z,87.08
2023-02-07T08:24:36.608Z,87.26
2023-02-07T08:27:03.573Z,87.27
2023-02-07T08:29:30.014Z,87.13
2023-02-07T08:31:56.532Z,86.64
2023-02-07T08:34:26.206Z,86.13
2023-02-07T08:36:53.105Z,85.73
2023-02-07T08:39:19.816Z,85.49
2023-02-07T08:41:46.329Z,85.10
2023-02-07T08:44:12.705Z,84.71
2023-02-07T08:46:39.223Z,84.30
2023-02-07T08:49:05.636Z,85.25
2023-02-07T08:51:32.038Z,84.98
2023-02-07T08:53:58.453Z,83.94
2023-02-07T08:56:24.874Z,84.09
2023-02-07T08:58:51.291Z,83.35
2023-02-07T09:01:17.697Z,83.51
2023-02-07T09:03:44.135Z,83.12
2023-02-07T09:06:10.884Z,82.84
2023-02-07T09:08:37.314Z,82.42
2023-02-07T09:11:09.076Z,82.16
2023-02-07T09:13:35.701Z,82.36
2023-02-07T09:16:02.071Z,82.29
2023-02-07T09:18:28.447Z,82.81
2023-02-07T09:20:54.867Z,81.95
2023-02-07T09:23:21.352Z,80.99
2023-02-07T09:25:49.949Z,80.57
2023-02-07T09:28:17.639Z,79.32
2023-02-07T09:30:45.232Z,77.09
2023-02-07T09:33:13.049Z,75.58
2023-02-07T09:35:41.098Z,74.58
2023-02-07T09:38:12.236Z,70.54
2023-02-07T09:40:39.232Z,70.21
2023-02-07T09:43:13.361Z,61.86
2023-02-07T09:45:42.662Z,63.03
2023-02-07T09:48:19.408Z,58.00
2023-02-07T09:50:50.515Z,59.35
2023-02-07T09:53:21.950Z,58.93
2023-02-07T09:55:55.520Z,56.28
2023-02-07T09:58:44.445Z,51.69
2023-02-07T10:01:30.477Z,50.76
2023-02-07T10:04:21.706Z,51.25
2023-02-07T10:06:54.186Z,50.81
2023-02-07T10:09:42.328Z,47.35
2023-02-07T10:12:14.909Z,48.92
2023-02-07T10:15:02.088Z,48.52
2023-02-07T10:17:53.546Z,44.68
2023-02-07T10:20:37.259Z,47.02
2023-02-07T10:23:28.007Z,46.34
2023-02-07T10:26:15.739Z,45.53
2023-02-07T10:29:20.458Z,45.30
2023-02-07T10:31:48.791Z,47.63
2023-02-07T10:34:19.918Z,45.54
2023-02-07T10:36:49.351Z,45.52
2023-02-07T10:39:26.077Z,45.24
2023-02-07T10:41:55.925Z,46.03
2023-02-07T10:44:22.467Z,46.64
2023-02-07T10:47:01.353Z,44.54
2023-02-07T10:49:33.976Z,44.29
2023-02-07T10:52:06.494Z,44.86
2023-02-07T10:54:49.872Z,43.68
2023-02-07T10:57:18.508Z,45.08
2023-02-07T10:59:47.992Z,45.15
2023-02-07T11:02:32.683Z,42.72
2023-02-07T11:05:03.466Z,44.01
2023-02-07T11:07:39.463Z,43.89
2023-02-07T11:10:20.965Z,42.75
2023-02-07T11:12:49.661Z,44.11
2023-02-07T11:15:19.824Z,43.34
2023-02-07T11:17:51.492Z,42.56
2023-02-07T11:20:36.701Z,43.14
2023-02-07T11:23:07.399Z,43.74
2023-02-07T11:25:40.763Z,44.60
2023-02-07T11:28:08.042Z,46.38
2023-02-07T11:30:36.070Z,46.19
2023-02-07T11:33:19.423Z,44.89
2023-02-07T11:36:28.649Z,46.26
2023-02-07T11:38:57.235Z,46.79
2023-02-07T11:41:28.858Z,47.45
2023-02-07T11:43:56.520Z,47.61
2023-02-07T11:46:30.180Z,48.01
2023-02-07T11:48:57.858Z,48.60
2023-02-07T11:51:24.521Z,49.08
2023-02-07T11:53:55.475Z,49.93
2023-02-07T11:56:30.035Z,51.88
2023-02-07T11:58:57.736Z,51.40
2023-02-07T12:01:33.051Z,53.21
2023-02-07T12:04:12.208Z,53.19
2023-02-07T12:06:43.730Z,52.46
2023-02-07T12:09:21.793Z,52.52
2023-02-07T12:11:49.224Z,52.71
2023-02-07T12:14:26.942Z,52.76
2023-02-07T12:16:56.755Z,52.15
2023-02-07T12:19:28.679Z,52.68
2023-02-07T12:22:23.924Z,53.56
2023-02-07T12:25:18.181Z,54.59
2023-02-07T12:27:45.887Z,53.62
2023-02-07T12:30:37.525Z,54.12
2023-02-07T12:33:12.166Z,55.03
2023-02-07T12:36:03.040Z,54.71
2023-02-07T12:38:47.505Z,55.12
2023-02-07T12:41:46.767Z,54.52
2023-02-07T12:44:17.132Z,54.92
2023-02-07T12:47:01.109Z,55.75
2023-02-07T12:49:49.169Z,55.49
2023-02-07T12:52:25.093Z,55.44
2023-02-07T12:55:18.222Z,55.12
2023-02-07T12:58:02.430Z,54.28
2023-02-07T13:00:47.682Z,54.36
2023-02-07T13:03:27.590Z,53.24
2023-02-07T13:06:03.438Z,52.86
2023-02-07T13:08:45.232Z,51.52
2023-02-07T13:11:42.872Z,50.53
2023-02-07T13:14:31.309Z,50.99
2023-02-07T13:17:22.483Z,49.97
2023-02-07T13:20:18.117Z,50.01
2023-02-07T13:22:54.746Z,49.49
2023-02-07T13:25:23.923Z,49.12
2023-02-07T13:27:52.742Z,49.58
2023-02-07T13:30:20.745Z,50.43
2023-02-07T13:32:48.115Z,51.01
2023-02-07T13:35:21.468Z,50.64
2023-02-07T13:37:56.821Z,52.35
2023-02-07T13:40:57.267Z,53.93
2023-02-07T13:43:32.764Z,52.94
2023-02-07T13:46:31.643Z,52.33
2023-02-07T13:49:03.507Z,53.32
2023-02-07T13:51:38.854Z,53.82
2023-02-07T13:54:13.465Z,53.60
2023-02-07T13:57:18.270Z,53.26
2023-02-07T14:00:04.875Z,53.90
2023-02-07T14:02:32.842Z,54.26
2023-02-07T14:05:08.221Z,55.07
2023-02-07T14:07:36.062Z,55.43
2023-02-07T14:10:04.523Z,56.05
2023-02-07T14:12:33.274Z,56.14
2023-02-07T14:15:43.913Z,57.45
2023-02-07T14:18:46.369Z,55.95
2023-02-07T14:21:18.918Z,55.86
2023-02-07T14:23:57.750Z,55.79
2023-02-07T14:26:39.370Z,55.59
2023-02-07T14:29:39.691Z,53.77
2023-02-07T14:32:15.137Z,50.96
2023-02-07T14:35:23.420Z,48.25
2023-02-07T14:37:53.953Z,49.83
2023-02-07T14:40:31.707Z,46.76
2023-02-07T14:43:05.521Z,46.85
2023-02-07T14:45:34.795Z,44.08
2023-02-07T14:48:01.346Z,44.00
2023-02-07T14:50:33.643Z,42.25
2023-02-07T14:53:03.753Z,40.35
2023-02-07T14:55:35.134Z,39.57
2023-02-07T14:58:08.625Z,36.54
2023-02-07T15:00:49.550Z,34.50
2023-02-07T15:03:18.643Z,35.92
2023-02-07T15:06:03.368Z,33.94
2023-02-07T15:08:37.815Z,35.75
2023-02-07T15:11:06.316Z,35.82
2023-02-07T15:13:36.753Z,35.12
2023-02-07T15:16:12.297Z,35.65
2023-02-07T15:18:45.755Z,35.45
2023-02-07T15:21:31.945Z,35.21
2023-02-07T15:24:02.031Z,35.19
2023-02-07T15:26:28.956Z,36.02
2023-02-07T15:29:04.029Z,36.98
2023-02-07T15:31:30.826Z,38.52
2023-02-07T15:34:00.480Z,39.31
2023-02-07T15:36:38.694Z,42.64
2023-02-07T15:39:07.590Z,42.09
2023-02-07T15:41:34.484Z,43.62
2023-02-07T15:44:03.161Z,43.00
2023-02-07T15:46:51.533Z,44.05
2023-02-07T15:49:25.106Z,45.25
2023-02-07T15:51:52.385Z,44.32
2023-02-07T15:54:18.909Z,43.48
2023-02-07T15:56:48.787Z,42.50
2023-02-07T15:59:16.760Z,42.51
2023-02-07T16:01:43.323Z,43.32
2023-02-07T16:04:09.777Z,44.17
2023-02-07T16:06:36.233Z,45.13
2023-02-07T16:09:04.452Z,46.43
2023-02-07T16:11:30.807Z,47.14
2023-02-07T16:14:31.693Z,49.45
2023-02-07T16:16:58.856Z,49.56
2023-02-07T16:19:30.570Z,49.90
2023-02-07T16:22:10.078Z,51.42
2023-02-07T16:24:39.107Z,50.90
2023-02-07T16:27:06.455Z,51.82
2023-02-07T16:29:34.301Z,52.16
2023-02-07T16:32:00.752Z,52.21
2023-02-07T16:34:27.176Z,52.56
2023-02-07T16:36:55.183Z,53.14
2023-02-07T16:39:23.242Z,53.66
2023-02-07T16:41:51.884Z,54.26
2023-02-07T16:44:22.962Z,54.96
2023-02-07T16:46:49.588Z,54.52
2023-02-07T16:49:18.072Z,55.07
2023-02-07T16:51:44.712Z,54.85
2023-02-07T16:54:11.254Z,55.84
2023-02-07T16:56:38.115Z,55.99
2023-02-07T16:59:04.802Z,56.55
2023-02-07T17:01:31.314Z,57.15
2023-02-07T17:03:57.752Z,57.71
2023-02-07T17:06:24.339Z,58.72
2023-02-07T17:08:52.004Z,59.47
2023-02-07T17:11:25.045Z,60.56
2023-02-07T17:13:55.293Z,60.80
2023-02-07T17:16:23.027Z,61.34
2023-02-07T17:18:49.863Z,61.61
2023-02-07T17:21:16.546Z,61.69
2023-02-07T17:23:43.513Z,61.68
2023-02-07T17:26:25.114Z,64.67
2023-02-07T17:28:52.548Z,63.47
2023-02-07T17:31:19.131Z,63.87
2023-02-07T17:33:45.679Z,64.09
2023-02-07T17:36:13.289Z,64.65
2023-02-07T17:38:39.808Z,64.96
2023-02-07T17:41:06.425Z,65.79
2023-02-07T17:43:33.418Z,65.16
2023-02-07T17:45:59.800Z,65.09
2023-02-07T17:48:30.171Z,65.65
2023-02-07T17:50:56.987Z,65.09
2023-02-07T17:53:23.478Z,65.68
2023-02-07T17:55:50.219Z,66.55
2023-02-07T17:58:19.679Z,67.05
2023-02-07T18:00:46.119Z,66.79
2023-02-07T18:03:12.532Z,67.30
2023-02-07T18:05:41.998Z,67.31
2023-02-07T18:08:12.088Z,67.67
2023-02-07T18:10:38.768Z,67.25
2023-02-07T18:13:05.347Z,67.27
2023-02-07T18:15:31.915Z,67.58
2023-02-07T18:17:58.587Z,67.76
2023-02-07T18:20:27.510Z,67.55
2023-02-07T18:22:55.360Z,67.48
2023-02-07T18:25:22.319Z,67.20
2023-02-07T18:27:50.964Z,67.59
2023-02-07T18:30:19.152Z,67.94
2023-02-07T18:32:45.700Z,68.63
2023-02-07T18:35:12.233Z,68.80
2023-02-07T18:37:38.806Z,69.06
2023-02-07T18:40:06.617Z,69.28
2023-02-07T18:42:33.132Z,69.10
2023-02-07T18:44:59.529Z,69.23
2023-02-07T18:47:26.363Z,69.27
2023-02-07T18:49:52.754Z,69.83
2023-02-07T18:52:19.160Z,69.62
2023-02-07T18:54:45.700Z,70.40
2023-02-07T18:57:12.171Z,70.21
2023-02-07T18:59:39.320Z,70.03
2023-02-07T19:02:06.590Z,70.90
2023-02-07T19:04:33.609Z,71.10
2023-02-07T19:07:00.116Z,71.40
2023-02-07T19:09:27.035Z,71.76
2023-02-07T19:11:54.876Z,71.85
2023-02-07T19:14:27.573Z,71.92
2023-02-07T19:16:55.833Z,71.97
2023-02-07T19:19:24.631Z,72.54
2023-02-07T19:21:51.338Z,71.91
2023-02-07T19:24:18.534Z,72.42
2023-02-07T19:26:49.631Z,72.60
2023-02-07T19:29:17.972Z,72.86
2023-02-07T19:31:44.774Z,73.31
2023-02-07T19:34:12.796Z,72.79
2023-02-07T19:36:40.002Z,72.82
2023-02-07T19:39:06.643Z,72.88
2023-02-07T19:41:33.714Z,72.72
2023-02-07T19:44:00.195Z,74.13
2023-02-07T19:46:26.734Z,73.97
2023-02-07T19:48:54.679Z,74.41
2023-02-07T19:51:24.164Z,74.03
2023-02-07T19:53:51.613Z,74.04
2023-02-07T19:56:19.015Z,74.11
2023-02-07T19:58:47.793Z,74.47
2023-02-07T20:01:15.183Z,74.62
2023-02-07T20:03:43.724Z,74.69
2023-02-07T20:06:13.381Z,74.73
2023-02-07T20:08:40.446Z,74.85
2023-02-07T20:11:09.678Z,75.11
2023-02-07T20:13:38.016Z,74.94
2023-02-07T20:16:12.168Z,75.71
2023-02-07T20:18:38.993Z,75.74
2023-02-07T20:21:11.527Z,76.43
2023-02-07T20:23:44.033Z,76.46
2023-02-07T20:26:31.843Z,75.78
2023-02-07T20:29:02.862Z,76.54
2023-02-07T20:31:31.745Z,76.36
2023-02-07T20:33:58.526Z,76.42
2023-02-07T20:36:25.758Z,76.72
2023-02-07T20:38:52.551Z,76.39
2023-02-07T20:41:30.618Z,76.84
2023-02-07T20:44:04.603Z,76.88
2023-02-07T20:46:32.674Z,77.12
2023-02-07T20:49:27.412Z,77.16
2023-02-07T20:51:54.921Z,77.15
2023-02-07T20:54:23.790Z,77.25
2023-02-07T20:56:51.528Z,77.25
2023-02-07T20:59:20.647Z,77.15
2023-02-07T21:01:47.440Z,77.22
2023-02-07T21:04:14.276Z,77.66
2023-02-07T21:06:42.689Z,77.37
2023-02-07T21:09:09.497Z,77.60
2023-02-07T21:11:38.933Z,77.36
2023-02-07T21:14:08.233Z,77.54
2023-02-07T21:16:35.035Z,77.70
2023-02-07T21:19:01.635Z,77.49
2023-02-07T21:21:28.944Z,77.49
2023-02-07T21:23:55.410Z,78.03
2023-02-07T21:26:21.918Z,77.49
2023-02-07T21:28:48.376Z,77.36
2023-02-07T21:31:18.032Z,77.74
2023-02-07T21:33:45.303Z,77.52
2023-02-07T21:36:14.109Z,77.67
2023-02-07T21:38:43.715Z,77.77
2023-02-07T21:41:11.723Z,77.29
2023-02-07T21:43:40.182Z,77.50
2023-02-07T21:46:09.146Z,77.99
2023-02-07T21:48:36.613Z,78.40
2023-02-07T21:51:10.915Z,78.45
2023-02-07T21:53:37.863Z,78.25
2023-02-07T21:56:07.125Z,78.60
2023-02-07T21:58:34.122Z,78.54
2023-02-07T22:01:21.975Z,79.56
2023-02-07T22:03:49.765Z,78.89
2023-02-07T22:06:17.685Z,79.00
2023-02-07T22:08:49.193Z,79.19
2023-02-07T22:11:16.487Z,78.29
2023-02-07T22:13:44.937Z,78.38
2023-02-07T22:16:13.601Z,78.18
2023-02-07T22:18:40.739Z,78.94
2023-02-07T22:21:19.765Z,79.72
2023-02-07T22:23:46.433Z,78.96
2023-02-07T22:26:13.112Z,78.66
2023-02-07T22:28:40.590Z,79.50
2023-02-07T22:31:11.720Z,79.73
2023-02-07T22:33:38.576Z,79.59
2023-02-07T22:36:10.758Z,79.60
2023-02-07T22:38:37.164Z,79.50
2023-02-07T22:41:04.378Z,79.66
2023-02-07T22:43:31.296Z,79.70
2023-02-07T22:45:57.874Z,79.80
2023-02-07T22:48:24.253Z,79.53
2023-02-07T22:50:50.706Z,80.21
2023-02-07T22:53:17.138Z,79.49
2023-02-07T22:55:43.554Z,79.96
2023-02-07T22:58:14.011Z,80.05
2023-02-07T23:00:41.042Z,81.24
2023-02-07T23:03:07.814Z,80.75
2023-02-07T23:05:37.435Z,80.66
2023-02-07T23:08:03.889Z,80.27
2023-02-07T23:10:30.242Z,80.70
2023-02-07T23:12:56.646Z,80.40
2023-02-07T23:15:23.224Z,80.29
2023-02-07T23:17:49.689Z,80.35
2023-02-07T23:20:16.074Z,80.25
2023-02-07T23:22:42.537Z,80.23
2023-02-07T23:25:09.993Z,80.02
2023-02-07T23:27:36.541Z,80.30
2023-02-07T23:30:03.095Z,80.05
2023-02-07T23:32:29.612Z,80.38
2023-02-07T23:34:56.296Z,80.39
2023-02-07T23:37:23.623Z,80.30
2023-02-07T23:39:50.387Z,80.52
2023-02-07T23:42:16.846Z,80.55
2023-02-07T23:44:43.250Z,80.55
2023-02-07T23:47:09.705Z,80.84
2023-02-07T23:49:36.153Z,80.54
2023-02-07T23:52:02.529Z,80.36
2023-02-07T23:54:28.949Z,81.03
2023-02-07T23:56:55.368Z,80.87
2023-02-07T23:59:21.769Z,80.88
